createdAt,value
2024-03-14T00:00:19.366Z,56.06
2024-03-14T00:02:47.809Z,56.20
2024-03-14T00:05:15.761Z,56.25
2024-03-14T00:07:43.340Z,56.48
2024-03-14T00:10:11.513Z,56.41
2024-03-14T00:12:39.198Z,56.04
2024-03-14T00:15:07.725Z,55.63
2024-03-14T00:17:39.636Z,56.07
2024-03-14T00:20:13.258Z,56.46
2024-03-14T00:22:40.901Z,56.53
2024-03-14T00:25:11.423Z,56.79
2024-03-14T00:27:39.946Z,56.83
2024-03-14T00:30:12.574Z,57.03
2024-03-14T00:32:40.291Z,56.98
2024-03-14T00:35:09.900Z,56.73
2024-03-14T00:37:38.103Z,56.73
2024-03-14T00:40:10.731Z,56.17
2024-03-14T00:42:45.444Z,56.27
2024-03-14T00:45:16.453Z,56.45
2024-03-14T00:47:44.181Z,57.13
2024-03-14T00:50:11.817Z,57.03
2024-03-14T00:52:39.281Z,57.55
2024-03-14T00:55:11.084Z,57.45
2024-03-14T00:57:40.508Z,56.91
2024-03-14T01:00:13.579Z,56.90
2024-03-14T01:02:42.855Z,56.98
2024-03-14T01:05:13.070Z,56.83
2024-03-14T01:07:41.341Z,57.39
2024-03-14T01:10:08.771Z,57.32
2024-03-14T01:12:36.797Z,57.92
2024-03-14T01:15:07.546Z,58.13
2024-03-14T01:17:35.637Z,58.02
2024-03-14T01:20:12.018Z,58.17
2024-03-14T01:22:39.799Z,57.96
2024-03-14T01:25:07.543Z,57.58
2024-03-14T01:27:35.068Z,57.92
2024-03-14T01:30:02.664Z,57.65
2024-03-14T01:32:30.275Z,58.07
2024-03-14T01:34:57.691Z,58.57
2024-03-14T01:37:25.153Z,58.52
2024-03-14T01:39:52.950Z,58.92
2024-03-14T01:42:20.476Z,58.69
2024-03-14T01:45:07.057Z,58.18
2024-03-14T01:47:35.009Z,57.52
2024-03-14T01:50:07.317Z,58.15
2024-03-14T01:52:37.924Z,58.99
2024-03-14T01:55:05.509Z,59.19
2024-03-14T01:57:33.272Z,58.71
2024-03-14T02:00:01.618Z,58.17
2024-03-14T02:02:39.273Z,58.80
2024-03-14T02:05:12.782Z,59.48
2024-03-14T02:07:40.439Z,59.47
2024-03-14T02:10:09.614Z,58.90
2024-03-14T02:12:37.127Z,58.47
2024-03-14T02:15:04.886Z,58.58
2024-03-14T02:17:32.427Z,58.91
2024-03-14T02:19:59.942Z,59.59
2024-03-14T02:22:28.523Z,59.96
2024-03-14T02:24:55.870Z,59.51
2024-03-14T02:27:24.035Z,59.45
2024-03-14T02:29:51.497Z,60.00
2024-03-14T02:32:19.655Z,60.01
2024-03-14T02:34:47.028Z,59.93
2024-03-14T02:37:14.617Z,60.00
2024-03-14T02:39:42.092Z,60.05
2024-03-14T02:42:12.748Z,60.16
2024-03-14T02:44:40.293Z,60.31
2024-03-14T02:47:11.120Z,60.88
2024-03-14T02:49:39.738Z,60.82
2024-03-14T02:52:07.488Z,60.35
2024-03-14T02:54:35.033Z,60.43
2024-03-14T02:57:02.481Z,60.82
2024-03-14T02:59:32.178Z,60.75
2024-03-14T03:02:03.213Z,60.52
2024-03-14T03:04:32.459Z,60.28
2024-03-14T03:07:06.965Z,61.00
2024-03-14T03:09:38.998Z,61.55
2024-03-14T03:12:07.347Z,60.95
2024-03-14T03:14:34.902Z,60.30
2024-03-14T03:17:02.360Z,60.57
2024-03-14T03:19:29.874Z,61.20
2024-03-14T03:21:59.770Z,60.99
2024-03-14T03:24:27.428Z,60.62
2024-03-14T03:26:55.129Z,60.81
2024-03-14T03:29:22.971Z,61.48
2024-03-14T03:31:50.591Z,61.50
2024-03-14T03:34:24.815Z,60.94
2024-03-14T03:36:52.432Z,60.90
2024-03-14T03:39:20.425Z,61.18
2024-03-14T03:41:48.160Z,61.69
2024-03-14T03:44:15.961Z,61.01
2024-03-14T03:46:45.674Z,60.97
2024-03-14T03:49:14.125Z,61.07
2024-03-14T03:51:41.710Z,61.10
2024-03-14T03:54:10.488Z,61.30
2024-03-14T03:56:38.013Z,61.06
2024-03-14T03:59:09.605Z,60.85
2024-03-14T04:01:37.092Z,61.02
2024-03-14T04:04:04.635Z,60.88
2024-03-14T04:06:34.878Z,61.10
2024-03-14T04:09:03.047Z,61.12
2024-03-14T04:11:30.607Z,60.06
2024-03-14T04:13:59.421Z,60.53
2024-03-14T04:16:30.365Z,61.17
2024-03-14T04:18:57.934Z,61.22
2024-03-14T04:21:25.586Z,61.27
2024-03-14T04:23:53.163Z,61.40
2024-03-14T04:26:20.523Z,61.20
2024-03-14T04:28:47.998Z,61.21
2024-03-14T04:31:15.383Z,61.06
2024-03-14T04:33:43.280Z,60.61
2024-03-14T04:36:11.167Z,60.29
2024-03-14T04:38:41.612Z,59.90
2024-03-14T04:41:16.704Z,59.45
2024-03-14T04:43:48.459Z,59.67
2024-03-14T04:46:18.014Z,60.18
2024-03-14T04:48:47.013Z,59.86
2024-03-14T04:51:14.705Z,59.64
2024-03-14T04:53:42.591Z,59.50
2024-03-14T04:56:10.090Z,60.12
2024-03-14T04:58:39.146Z,60.34
2024-03-14T05:01:07.207Z,60.40
2024-03-14T05:03:35.113Z,60.03
2024-03-14T05:06:04.829Z,59.48
2024-03-14T05:08:32.511Z,59.93
2024-03-14T05:11:00.521Z,60.08
2024-03-14T05:13:29.262Z,60.07
2024-03-14T05:15:57.042Z,60.14
2024-03-14T05:18:25.208Z,59.87
2024-03-14T05:20:54.947Z,59.47
2024-03-14T05:23:22.583Z,59.25
2024-03-14T05:25:49.942Z,59.12
2024-03-14T05:28:18.103Z,59.06
2024-03-14T05:30:45.725Z,58.94
2024-03-14T05:33:13.306Z,58.92
2024-03-14T05:35:41.808Z,59.01
2024-03-14T05:38:10.171Z,58.59
2024-03-14T05:40:37.815Z,58.52
2024-03-14T05:43:05.363Z,58.41
2024-03-14T05:45:36.887Z,58.62
2024-03-14T05:48:11.037Z,58.76
2024-03-14T05:50:38.886Z,58.92
2024-03-14T05:53:06.755Z,58.98
2024-03-14T05:55:34.370Z,59.24
2024-03-14T05:58:01.718Z,59.68
2024-03-14T06:00:30.739Z,60.05
2024-03-14T06:02:58.536Z,59.62
2024-03-14T06:05:26.095Z,60.08
2024-03-14T06:07:53.634Z,60.69
2024-03-14T06:10:23.122Z,60.40
2024-03-14T06:12:51.161Z,60.73
2024-03-14T06:15:19.554Z,61.82
2024-03-14T06:17:52.759Z,62.64
2024-03-14T06:20:20.929Z,63.77
2024-03-14T06:22:48.498Z,64.30
2024-03-14T06:25:17.370Z,64.86
2024-03-14T06:27:45.193Z,66.12
2024-03-14T06:30:15.900Z,66.57
2024-03-14T06:32:48.100Z,67.14
2024-03-14T06:35:17.115Z,68.43
2024-03-14T06:37:44.801Z,69.81
2024-03-14T06:40:15.773Z,69.82
2024-03-14T06:42:43.338Z,69.69
2024-03-14T06:45:12.152Z,69.78
2024-03-14T06:47:42.222Z,69.42
2024-03-14T06:50:11.123Z,69.94
2024-03-14T06:52:39.158Z,70.90
2024-03-14T06:55:17.009Z,71.40
2024-03-14T06:57:47.061Z,72.03
2024-03-14T07:00:19.371Z,72.37
2024-03-14T07:02:47.156Z,72.31
2024-03-14T07:05:16.769Z,72.12
2024-03-14T07:07:48.034Z,71.92
2024-03-14T07:10:16.203Z,71.60
2024-03-14T07:12:48.076Z,71.53
2024-03-14T07:15:16.654Z,70.63
2024-03-14T07:17:44.417Z,70.07
2024-03-14T07:20:18.043Z,69.36
2024-03-14T07:22:47.482Z,68.75
2024-03-14T07:25:17.135Z,68.55
2024-03-14T07:27:47.720Z,69.46
2024-03-14T07:30:16.443Z,69.26
2024-03-14T07:32:44.920Z,68.92
2024-03-14T07:35:15.715Z,68.10
2024-03-14T07:37:47.116Z,66.93
2024-03-14T07:40:18.680Z,66.64
2024-03-14T07:42:47.529Z,66.65
2024-03-14T07:45:18.280Z,67.03
2024-03-14T07:47:47.066Z,66.97
2024-03-14T07:50:14.540Z,66.55
2024-03-14T07:52:42.004Z,66.49
2024-03-14T07:55:10.888Z,65.91
2024-03-14T07:57:38.621Z,65.60
2024-03-14T08:00:10.906Z,65.75
2024-03-14T08:02:40.619Z,66.30
2024-03-14T08:05:12.925Z,67.07
2024-03-14T08:07:40.304Z,66.46
2024-03-14T08:10:09.834Z,66.40
2024-03-14T08:12:37.335Z,66.67
2024-03-14T08:15:32.237Z,67.09
2024-03-14T08:18:00.947Z,69.72
2024-03-14T08:20:30.414Z,71.06
2024-03-14T08:22:57.946Z,72.42
2024-03-14T08:25:26.226Z,74.15
2024-03-14T08:27:54.828Z,74.36
2024-03-14T08:30:24.640Z,72.50
2024-03-14T08:32:53.319Z,71.95
2024-03-14T08:35:21.633Z,71.01
2024-03-14T08:37:49.033Z,70.79
2024-03-14T08:40:16.487Z,69.40
2024-03-14T08:42:48.871Z,67.02
2024-03-14T08:45:19.838Z,64.80
2024-03-14T08:47:47.779Z,62.84
2024-03-14T08:50:16.872Z,61.48
2024-03-14T08:52:46.189Z,62.42
2024-03-14T08:55:31.073Z,62.28
2024-03-14T08:58:01.170Z,60.67
2024-03-14T09:00:29.356Z,59.96
2024-03-14T09:03:01.390Z,59.34
2024-03-14T09:05:30.863Z,59.15
2024-03-14T09:07:58.596Z,59.10
2024-03-14T09:10:29.113Z,58.03
2024-03-14T09:12:57.187Z,56.87
2024-03-14T09:15:25.981Z,56.79
2024-03-14T09:17:53.754Z,56.93
2024-03-14T09:20:22.251Z,57.03
2024-03-14T09:22:57.046Z,56.29
2024-03-14T09:25:25.866Z,55.93
2024-03-14T09:27:53.720Z,55.59
2024-03-14T09:30:23.715Z,56.93
2024-03-14T09:32:52.375Z,58.07
2024-03-14T09:35:30.049Z,57.18
2024-03-14T09:37:58.817Z,57.03
2024-03-14T09:40:26.364Z,56.48
2024-03-14T09:42:58.309Z,56.37
2024-03-14T09:45:26.755Z,57.40
2024-03-14T09:47:58.184Z,56.58
2024-03-14T09:50:28.372Z,57.03
2024-03-14T09:52:56.986Z,57.11
2024-03-14T09:55:25.815Z,57.08
2024-03-14T09:57:55.022Z,57.21
2024-03-14T10:00:26.159Z,57.86
2024-03-14T10:02:59.785Z,57.36
2024-03-14T10:05:27.644Z,56.94
2024-03-14T10:07:58.872Z,56.95
2024-03-14T10:10:27.739Z,56.33
2024-03-14T10:12:55.933Z,56.24
2024-03-14T10:15:24.090Z,56.86
2024-03-14T10:17:54.876Z,55.97
2024-03-14T10:20:23.213Z,55.96
2024-03-14T10:22:51.036Z,57.18
2024-03-14T10:25:19.282Z,55.27
2024-03-14T10:27:57.684Z,55.00
2024-03-14T10:30:35.390Z,54.63
2024-03-14T10:33:06.117Z,54.25
2024-03-14T10:35:35.943Z,55.21
2024-03-14T10:38:03.379Z,54.90
2024-03-14T10:40:30.791Z,54.40
2024-03-14T10:42:58.812Z,54.09
2024-03-14T10:46:51.646Z,53.72
2024-03-14T10:49:23.745Z,52.12
2024-03-14T10:51:53.212Z,52.27
2024-03-14T10:54:23.282Z,51.39
2024-03-14T10:56:51.449Z,51.92
2024-03-14T10:59:21.029Z,51.80
2024-03-14T11:01:52.150Z,51.14
2024-03-14T11:04:21.577Z,48.10
2024-03-14T11:06:50.867Z,49.65
2024-03-14T11:09:19.029Z,49.32
2024-03-14T11:11:47.075Z,49.51
2024-03-14T11:14:15.259Z,50.26
2024-03-14T11:16:45.285Z,50.79
2024-03-14T11:19:16.266Z,49.53
2024-03-14T11:21:43.816Z,48.66
2024-03-14T11:24:13.859Z,49.24
2024-03-14T11:26:44.791Z,49.80
2024-03-14T11:29:15.662Z,50.96
2024-03-14T11:31:43.745Z,50.71
2024-03-14T11:34:18.890Z,50.39
2024-03-14T11:36:50.195Z,50.14
2024-03-14T11:39:22.272Z,50.88
2024-03-14T11:41:50.555Z,50.95
2024-03-14T11:44:21.233Z,50.40
2024-03-14T11:46:50.503Z,49.70
2024-03-14T11:49:18.151Z,50.08
2024-03-14T11:51:49.218Z,49.58
2024-03-14T11:54:22.413Z,48.45
2024-03-14T11:56:50.112Z,49.15
2024-03-14T11:59:18.031Z,49.15
2024-03-14T12:01:51.068Z,49.77
2024-03-14T12:04:19.382Z,50.11
2024-03-14T12:06:51.000Z,50.23
2024-03-14T12:09:23.673Z,49.23
2024-03-14T12:11:51.558Z,49.54
2024-03-14T12:14:19.910Z,49.24
2024-03-14T12:16:48.418Z,49.49
2024-03-14T12:19:19.674Z,49.66
2024-03-14T12:21:50.649Z,49.78
2024-03-14T12:24:18.074Z,49.92
2024-03-14T12:26:45.792Z,49.94
2024-03-14T12:29:13.277Z,49.58
2024-03-14T12:31:42.257Z,48.74
2024-03-14T12:34:09.833Z,49.21
2024-03-14T12:36:40.520Z,49.71
2024-03-14T12:39:08.642Z,50.01
2024-03-14T12:41:38.133Z,50.07
2024-03-14T12:44:06.139Z,49.78
2024-03-14T12:46:34.485Z,50.10
2024-03-14T12:49:02.222Z,50.91
2024-03-14T12:51:29.648Z,50.43
2024-03-14T12:53:57.759Z,50.08
2024-03-14T12:56:25.826Z,49.98
2024-03-14T12:58:56.935Z,49.38
2024-03-14T13:01:31.777Z,49.86
2024-03-14T13:04:00.335Z,49.35
2024-03-14T13:06:29.809Z,49.60
2024-03-14T13:09:17.474Z,50.10
2024-03-14T13:12:05.206Z,50.67
2024-03-14T13:14:33.233Z,50.21
2024-03-14T13:17:07.815Z,50.74
2024-03-14T13:19:37.270Z,50.60
2024-03-14T13:22:05.596Z,49.61
2024-03-14T13:24:34.247Z,49.57
2024-03-14T13:27:04.185Z,50.82
2024-03-14T13:29:31.895Z,51.07
2024-03-14T13:32:02.422Z,50.69
2024-03-14T13:34:32.835Z,50.53
2024-03-14T13:37:02.029Z,49.85
2024-03-14T13:39:29.940Z,49.28
2024-03-14T13:41:59.571Z,50.12
2024-03-14T13:44:27.373Z,49.56
2024-03-14T13:46:54.852Z,49.66
2024-03-14T13:49:22.374Z,50.56
2024-03-14T13:51:49.856Z,51.18
2024-03-14T13:54:25.724Z,51.09
2024-03-14T13:56:55.850Z,50.84
2024-03-14T13:59:24.020Z,50.29
2024-03-14T14:01:52.948Z,50.36
2024-03-14T14:04:22.296Z,50.04
2024-03-14T14:06:49.819Z,49.95
2024-03-14T14:09:17.756Z,50.28
2024-03-14T14:11:45.331Z,50.64
2024-03-14T14:14:17.507Z,51.20
2024-03-14T14:16:45.132Z,50.98
2024-03-14T14:19:12.520Z,50.67
2024-03-14T14:21:40.479Z,50.00
2024-03-14T14:24:11.077Z,50.22
2024-03-14T14:26:38.576Z,50.48
2024-03-14T14:29:06.315Z,51.04
2024-03-14T14:31:33.876Z,49.88
2024-03-14T14:34:01.379Z,49.88
2024-03-14T14:36:29.009Z,50.12
2024-03-14T14:38:56.509Z,50.26
2024-03-14T14:41:23.926Z,49.89
2024-03-14T14:43:52.288Z,50.04
2024-03-14T14:46:19.771Z,49.95
2024-03-14T14:48:47.585Z,50.49
2024-03-14T14:51:15.414Z,50.84
2024-03-14T14:53:42.982Z,50.90
2024-03-14T14:56:16.938Z,50.82
2024-03-14T14:58:46.910Z,50.47
2024-03-14T15:01:17.147Z,50.92
2024-03-14T15:03:46.091Z,50.38
2024-03-14T15:06:14.131Z,50.38
2024-03-14T15:08:47.005Z,50.58
2024-03-14T15:11:16.311Z,50.93
2024-03-14T15:13:44.311Z,50.76
2024-03-14T15:16:12.636Z,50.87
2024-03-14T15:18:41.573Z,50.73
2024-03-14T15:21:12.115Z,50.39
2024-03-14T15:23:39.990Z,50.81
2024-03-14T15:26:09.803Z,51.22
2024-03-14T15:28:37.414Z,51.15
2024-03-14T15:31:05.114Z,50.59
2024-03-14T15:33:32.974Z,50.78
2024-03-14T15:36:00.754Z,50.61
2024-03-14T15:38:29.155Z,50.58
2024-03-14T15:40:56.898Z,50.88
2024-03-14T15:43:24.357Z,51.08
2024-03-14T15:45:53.002Z,50.99
2024-03-14T15:48:25.148Z,50.85
2024-03-14T15:50:52.800Z,50.79
2024-03-14T15:53:20.210Z,50.52
2024-03-14T15:55:47.684Z,50.31
2024-03-14T15:58:15.594Z,50.43
2024-03-14T16:00:43.405Z,51.22
2024-03-14T16:03:11.895Z,50.52
2024-03-14T16:05:40.095Z,51.11
2024-03-14T16:08:10.977Z,51.40
2024-03-14T16:10:39.839Z,51.16
2024-03-14T16:13:08.128Z,51.44
2024-03-14T16:15:36.238Z,51.54
2024-03-14T16:18:05.414Z,51.71
2024-03-14T16:20:35.891Z,51.49
2024-03-14T16:23:05.881Z,51.33
2024-03-14T16:25:37.276Z,51.27
2024-03-14T16:28:05.537Z,51.19
2024-03-14T16:30:33.339Z,51.13
2024-03-14T16:33:01.455Z,51.14
2024-03-14T16:35:36.085Z,50.77
2024-03-14T16:38:04.114Z,50.72
2024-03-14T16:40:32.952Z,51.24
2024-03-14T16:43:00.918Z,51.24
2024-03-14T16:45:33.812Z,51.33
2024-03-14T16:48:04.677Z,51.36
2024-03-14T16:50:32.992Z,51.18
2024-03-14T16:53:00.660Z,51.11
2024-03-14T16:55:30.669Z,51.28
2024-03-14T16:58:01.598Z,51.23
2024-03-14T17:00:32.503Z,51.38
2024-03-14T17:03:01.224Z,51.52
2024-03-14T17:05:30.421Z,51.59
2024-03-14T17:07:58.382Z,51.37
2024-03-14T17:10:27.004Z,50.84
2024-03-14T17:13:03.339Z,50.88
2024-03-14T17:15:32.288Z,50.82
2024-03-14T17:18:00.260Z,50.58
2024-03-14T17:20:28.324Z,50.97
2024-03-14T17:22:58.404Z,51.05
2024-03-14T17:25:25.983Z,50.79
2024-03-14T17:27:56.180Z,51.21
2024-03-14T17:30:28.746Z,50.96
2024-03-14T17:32:57.327Z,50.87
2024-03-14T17:35:27.133Z,50.88
2024-03-14T17:37:54.520Z,50.88
2024-03-14T17:40:22.058Z,50.78
2024-03-14T17:42:49.678Z,50.56
2024-03-14T17:45:24.048Z,50.68
2024-03-14T17:47:53.042Z,50.80
2024-03-14T17:50:21.477Z,50.94
2024-03-14T17:52:50.635Z,51.34
2024-03-14T17:55:18.539Z,51.68
2024-03-14T17:57:46.908Z,51.59
2024-03-14T18:00:18.280Z,51.32
2024-03-14T18:02:48.560Z,51.22
2024-03-14T18:05:17.924Z,51.09
2024-03-14T18:07:47.474Z,50.93
2024-03-14T18:10:17.511Z,50.95
2024-03-14T18:12:47.146Z,50.72
2024-03-14T18:15:18.552Z,50.96
2024-03-14T18:17:47.022Z,51.19
2024-03-14T18:20:15.020Z,51.59
2024-03-14T18:22:43.221Z,51.66
2024-03-14T18:25:11.462Z,51.51
2024-03-14T18:27:39.174Z,51.33
2024-03-14T18:30:14.537Z,51.42
2024-03-14T18:32:45.350Z,51.36
2024-03-14T18:35:22.878Z,51.22
2024-03-14T18:37:51.600Z,51.05
2024-03-14T18:40:20.288Z,50.97
2024-03-14T18:42:49.311Z,51.01
2024-03-14T18:45:18.451Z,51.07
2024-03-14T18:47:46.853Z,51.35
2024-03-14T18:50:14.554Z,51.34
2024-03-14T18:52:42.166Z,51.37
2024-03-14T18:55:12.700Z,51.53
2024-03-14T18:57:40.749Z,51.31
2024-03-14T19:00:20.022Z,51.11
2024-03-14T19:02:49.732Z,51.25
2024-03-14T19:05:19.568Z,51.26
2024-03-14T19:07:46.991Z,51.33
2024-03-14T19:10:15.336Z,50.98
2024-03-14T19:12:42.906Z,51.20
2024-03-14T19:15:13.165Z,51.40
2024-03-14T19:17:44.082Z,51.73
2024-03-14T19:20:13.774Z,51.81
2024-03-14T19:22:41.527Z,51.83
2024-03-14T19:25:11.405Z,51.95
2024-03-14T19:27:39.569Z,51.94
2024-03-14T19:30:10.132Z,51.88
2024-03-14T19:32:38.041Z,52.07
2024-03-14T19:35:06.656Z,51.98
2024-03-14T19:37:34.349Z,51.93
2024-03-14T19:40:03.048Z,52.41
2024-03-14T19:42:30.649Z,52.37
2024-03-14T19:44:58.684Z,52.13
2024-03-14T19:47:27.055Z,52.27
2024-03-14T19:49:55.365Z,52.76
2024-03-14T19:52:22.813Z,53.17
2024-03-14T19:54:52.682Z,53.49
2024-03-14T19:57:20.127Z,53.76
2024-03-14T19:59:48.138Z,53.74
2024-03-14T20:02:16.631Z,53.57
2024-03-14T20:04:45.880Z,53.39
2024-03-14T20:07:13.915Z,53.51
2024-03-14T20:09:41.433Z,53.17
2024-03-14T20:12:09.877Z,52.80
2024-03-14T20:14:37.749Z,52.81
2024-03-14T20:17:05.178Z,52.77
2024-03-14T20:19:32.613Z,52.01
2024-03-14T20:22:00.028Z,52.48
2024-03-14T20:24:27.749Z,52.76
2024-03-14T20:26:55.976Z,52.94
2024-03-14T20:29:24.915Z,53.00
2024-03-14T20:31:52.337Z,52.62
2024-03-14T20:34:22.872Z,52.57
2024-03-14T20:36:50.561Z,52.99
2024-03-14T20:39:23.740Z,53.46
2024-03-14T20:41:52.321Z,53.48
2024-03-14T20:44:19.804Z,53.69
2024-03-14T20:46:47.910Z,53.92
2024-03-14T20:49:15.976Z,53.86
2024-03-14T20:51:44.697Z,54.08
2024-03-14T20:54:12.414Z,54.16
2024-03-14T20:56:43.503Z,54.34
2024-03-14T20:59:13.002Z,54.39
2024-03-14T21:01:40.441Z,54.52
2024-03-14T21:04:11.202Z,54.58
2024-03-14T21:06:39.418Z,54.69
2024-03-14T21:09:09.371Z,54.71
2024-03-14T21:11:39.245Z,54.87
2024-03-14T21:14:07.178Z,54.72
2024-03-14T21:16:36.556Z,54.77
2024-03-14T21:19:04.753Z,54.63
2024-03-14T21:21:32.607Z,54.45
2024-03-14T21:24:03.207Z,54.41
2024-03-14T21:26:31.159Z,54.41
2024-03-14T21:29:01.193Z,54.26
2024-03-14T21:31:31.293Z,54.30
2024-03-14T21:33:59.562Z,54.68
2024-03-14T21:36:28.400Z,54.67
2024-03-14T21:38:56.471Z,54.89
2024-03-14T21:41:26.885Z,55.19
2024-03-14T21:43:58.084Z,55.27
2024-03-14T21:46:26.107Z,55.24
2024-03-14T21:48:53.787Z,55.18
2024-03-14T21:51:21.541Z,55.49
2024-03-14T21:53:49.998Z,55.74
2024-03-14T21:56:17.468Z,55.97
2024-03-14T21:58:53.172Z,56.10
2024-03-14T22:01:22.239Z,56.26
2024-03-14T22:03:50.131Z,55.93
2024-03-14T22:06:17.842Z,56.01
2024-03-14T22:08:45.357Z,55.61
2024-03-14T22:11:13.564Z,55.03
2024-03-14T22:13:42.873Z,54.96
2024-03-14T22:16:11.797Z,54.95
2024-03-14T22:18:39.595Z,55.25
2024-03-14T22:21:08.191Z,54.69
2024-03-14T22:23:35.887Z,54.84
2024-03-14T22:26:03.527Z,55.26
2024-03-14T22:28:32.869Z,55.73
2024-03-14T22:31:10.286Z,55.91
2024-03-14T22:33:41.294Z,56.08
2024-03-14T22:36:09.732Z,56.19
2024-03-14T22:38:38.077Z,56.19
2024-03-14T22:41:09.337Z,56.09
2024-03-14T22:43:41.075Z,55.89
2024-03-14T22:46:10.211Z,55.90
2024-03-14T22:48:37.941Z,55.86
2024-03-14T22:51:05.699Z,56.02
2024-03-14T22:53:33.492Z,55.82
2024-03-14T22:56:00.965Z,55.28
2024-03-14T22:58:28.954Z,55.06
2024-03-14T23:00:58.836Z,55.28
2024-03-14T23:05:22.971Z,55.85
2024-03-14T23:07:50.355Z,55.61
2024-03-14T23:10:17.632Z,55.95
2024-03-14T23:12:44.947Z,55.96
2024-03-14T23:15:12.476Z,56.08
2024-03-14T23:17:40.658Z,56.17
2024-03-14T23:20:11.026Z,55.93
2024-03-14T23:22:38.332Z,55.79
2024-03-14T23:25:09.132Z,55.56
2024-03-14T23:27:37.155Z,55.60
2024-03-14T23:30:05.204Z,55.55
2024-03-14T23:32:33.386Z,55.62
2024-03-14T23:35:00.735Z,55.76
2024-03-14T23:37:28.122Z,56.02
2024-03-14T23:39:55.360Z,55.91
2024-03-14T23:42:43.393Z,55.96
2024-03-14T23:45:10.793Z,55.96
2024-03-14T23:47:39.789Z,55.83
2024-03-14T23:50:09.519Z,55.43
2024-03-14T23:52:36.897Z,55.49
2024-03-14T23:55:05.510Z,55.71
2024-03-14T23:57:32.816Z,55.20
